Edson, Kansas
Current Conditions -  °F | °C
As of 8:53 PM on Sunday 25 Jan 2015 (Local Time) from KGLD Reporting Station
Clear Clear  
Wind Chill: 28°   Ceiling: Unl
Heat Index: 36°   Visibility: 10mi
Dew Point: 30°   Wind: 10mph
Humidity: 79%   Direction: 250°WSW
Pressure: 30.12"   Gusts: NA
Location:  39.34°N, 101.54°W
Report Text: KGLD 260353Z AUTO 25009KT 10SM CLR 02/M01 A3012 RMK AO2 SLP207 T00221011
Loading
Personal Weather Stations






























Interactive Weather Map New forecast layout! Learn more

10-Day Weather Forecast

Advertisements
Track Severe Weather on mobile